Time;durP1;ratioP1;P1;durP2;ratioP2;P2;SDS_P1;SDS_P2;PMS_P1;PMS_P2;Temp;Humidity;BMP_temperature;BMP_pressure;BME280_temperature;BME280_humidity;BME280_pressure;Samples;Min_cycle;Max_cycle;Signal;HPM_P1;HPM_P2
2021/05/15 00:01:21;;;;;;;3.25;1.90;;;11.00;82.80;;;;;;5091941;28;20801;-77
2021/05/15 00:03:47;;;;;;;2.45;1.67;;;11.10;82.00;;;;;;5092415;28;20367;-77
2021/05/15 00:06:13;;;;;;;4.03;2.20;;;11.10;82.30;;;;;;5092820;28;20370;-77
2021/05/15 00:08:38;;;;;;;2.83;2.00;;;11.30;81.80;;;;;;5091541;28;20839;-76
2021/05/15 00:11:06;;;;;;;2.47;1.90;;;11.10;81.80;;;;;;5092283;28;20783;-77
2021/05/15 00:13:32;;;;;;;3.35;2.17;;;10.80;82.50;;;;;;5092392;28;20777;-76
2021/05/15 00:15:57;;;;;;;3.00;1.85;;;10.70;82.90;;;;;;5092508;28;20394;-76
2021/05/15 00:18:23;;;;;;;2.55;2.00;;;10.80;82.70;;;;;;5091762;28;20385;-76
2021/05/15 00:20:49;;;;;;;4.15;2.30;;;10.80;82.80;;;;;;5091110;28;20418;-76
2021/05/15 00:23:14;;;;;;;5.85;2.47;;;10.70;83.10;;;;;;5091971;28;20444;-76
2021/05/15 00:25:40;;;;;;;6.00;2.70;;;10.80;83.10;;;;;;5092386;28;20496;-77
2021/05/15 00:28:05;;;;;;;3.47;2.40;;;10.50;83.40;;;;;;5090184;28;20409;-76
2021/05/15 00:30:31;;;;;;;3.90;2.53;;;10.80;83.10;;;;;;5091131;28;20402;-76
2021/05/15 00:32:57;;;;;;;5.05;2.50;;;10.80;82.90;;;;;;5091763;28;20707;-76
2021/05/15 00:35:22;;;;;;;2.97;2.10;;;10.80;83.10;;;;;;5091977;28;20374;-76
2021/05/15 00:37:48;;;;;;;3.38;2.72;;;10.90;82.50;;;;;;5090446;28;20393;-76
2021/05/15 00:40:14;;;;;;;5.73;2.80;;;10.80;83.00;;;;;;5090422;28;20386;-75
2021/05/15 00:42:40;;;;;;;3.53;2.33;;;10.80;82.80;;;;;;5091847;28;20393;-77
2021/05/15 00:45:08;;;;;;;3.72;2.53;;;10.80;83.00;;;;;;5090389;28;20386;-77
2021/05/15 00:47:34;;;;;;;4.32;2.40;;;10.80;82.80;;;;;;5091529;28;20439;-76
2021/05/15 00:49:59;;;;;;;4.72;2.75;;;10.90;82.60;;;;;;5090272;28;20440;-76
2021/05/15 00:52:31;;;;;;;6.60;2.85;;;10.90;82.50;;;;;;5091568;28;20416;-77
2021/05/15 00:54:57;;;;;;;3.53;2.72;;;10.70;82.80;;;;;;5091385;28;20527;-77
2021/05/15 00:57:24;;;;;;;4.97;2.60;;;10.80;82.50;;;;;;5091122;28;20472;-77
2021/05/15 00:59:49;;;;;;;4.43;2.90;;;10.80;82.40;;;;;;5091408;28;20434;-77
2021/05/15 01:02:15;;;;;;;5.43;2.80;;;10.70;82.90;;;;;;5091577;28;20362;-77
2021/05/15 01:04:41;;;;;;;5.07;2.95;;;10.70;82.90;;;;;;5091267;28;20408;-77
2021/05/15 01:07:09;;;;;;;5.35;2.80;;;10.80;82.80;;;;;;5091061;28;20374;-76
2021/05/15 01:09:36;;;;;;;5.80;3.20;;;10.80;82.60;;;;;;5091470;28;20398;-77
2021/05/15 01:12:06;;;;;;;4.82;3.15;;;10.80;82.60;;;;;;5090960;28;20382;-75
2021/05/15 01:14:37;;;;;;;5.32;3.13;;;10.60;83.50;;;;;;5078469;28;20739;-76
2021/05/15 01:17:03;;;;;;;5.15;2.97;;;10.60;83.90;;;;;;5088634;28;20397;-77
2021/05/15 01:19:29;;;;;;;3.88;2.83;;;10.30;84.50;;;;;;5091493;28;20370;-77
2021/05/15 01:21:55;;;;;;;4.38;3.15;;;10.30;85.00;;;;;;5091002;28;20473;-76
2021/05/15 01:24:21;;;;;;;4.82;3.40;;;10.30;85.00;;;;;;5078924;28;20786;-75
2021/05/15 01:26:47;;;;;;;5.43;3.10;;;10.20;85.10;;;;;;5090617;28;20369;-76
2021/05/15 01:29:13;;;;;;;6.88;3.80;;;10.10;85.60;;;;;;5091044;28;20401;-76
2021/05/15 01:31:39;;;;;;;5.75;3.53;;;10.00;85.70;;;;;;5090998;28;20508;-76
2021/05/15 01:34:05;;;;;;;4.30;3.60;;;10.10;85.60;;;;;;5090537;28;20388;-77
2021/05/15 01:36:42;;;;;;;4.90;3.55;;;10.10;85.40;;;;;;5072421;28;20411;-75
2021/05/15 01:39:10;;;;;;;7.55;3.72;;;10.00;85.20;;;;;;5090680;28;20410;-78
2021/05/15 01:41:36;;;;;;;5.30;3.53;;;9.90;85.90;;;;;;5090859;28;20370;-78
2021/05/15 01:44:02;;;;;;;5.00;3.78;;;9.90;85.90;;;;;;5090624;28;20378;-75
2021/05/15 01:46:28;;;;;;;4.32;3.60;;;9.90;85.90;;;;;;5072845;28;20761;-76
2021/05/15 01:48:53;;;;;;;5.03;3.60;;;10.00;85.40;;;;;;5090352;28;20454;-76
2021/05/15 01:51:19;;;;;;;6.40;3.70;;;9.90;85.80;;;;;;5090800;28;20711;-76
2021/05/15 01:53:49;;;;;;;6.03;3.53;;;9.90;85.80;;;;;;5090401;28;20838;-77
2021/05/15 01:56:18;;;;;;;5.65;3.47;;;10.00;85.70;;;;;;5090618;28;20381;-76
2021/05/15 01:58:44;;;;;;;6.57;3.60;;;10.10;85.10;;;;;;5090111;28;20804;-75
2021/05/15 02:01:10;;;;;;;5.47;3.60;;;10.20;85.10;;;;;;5086176;28;20458;-77
2021/05/15 02:03:38;;;;;;;5.35;3.30;;;10.20;84.90;;;;;;5089289;28;20384;-76
2021/05/15 02:06:04;;;;;;;6.90;3.80;;;10.20;84.90;;;;;;5084708;28;20506;-76
2021/05/15 02:08:30;;;;;;;4.77;3.70;;;10.10;85.30;;;;;;5072110;28;20417;-76
2021/05/15 02:10:59;;;;;;;8.27;4.10;;;10.00;85.40;;;;;;5090457;28;20506;-76
2021/05/15 02:13:26;;;;;;;6.97;3.80;;;9.90;86.10;;;;;;5090472;28;20436;-77
2021/05/15 02:15:53;;;;;;;6.05;3.90;;;9.90;86.10;;;;;;5090319;28;20476;-78
2021/05/15 02:18:18;;;;;;;5.50;3.85;;;9.80;86.80;;;;;;5090181;28;20845;-76
2021/05/15 02:20:44;;;;;;;5.70;3.80;;;9.70;87.10;;;;;;5089933;28;20452;-77
2021/05/15 02:23:11;;;;;;;5.63;3.80;;;9.80;87.20;;;;;;5072709;28;20485;-76
2021/05/15 02:25:38;;;;;;;4.47;3.53;;;9.80;87.30;;;;;;5094215;28;20374;-76
2021/05/15 02:28:04;;;;;;;7.55;3.70;;;9.80;86.70;;;;;;5082361;28;20389;-77
2021/05/15 02:30:32;;;;;;;4.57;3.22;;;9.90;86.30;;;;;;5076325;28;20430;-77
2021/05/15 02:32:57;;;;;;;5.10;3.37;;;10.00;85.60;;;;;;5075989;28;20463;-77
2021/05/15 02:35:23;;;;;;;6.80;3.53;;;10.00;85.70;;;;;;5094241;28;20881;-76
2021/05/15 02:37:49;;;;;;;6.75;3.53;;;10.10;85.60;;;;;;5093543;28;20850;-76
2021/05/15 02:40:16;;;;;;;5.28;3.60;;;9.90;86.50;;;;;;5094385;28;20416;-75
2021/05/15 02:42:42;;;;;;;4.53;3.50;;;9.90;86.80;;;;;;5092829;28;20827;-77
2021/05/15 02:45:11;;;;;;;5.88;3.65;;;9.80;87.00;;;;;;5094191;28;20415;-77
2021/05/15 02:47:37;;;;;;;4.53;3.28;;;9.70;87.10;;;;;;5092344;28;20377;-77
2021/05/15 02:50:04;;;;;;;4.87;3.40;;;9.70;87.60;;;;;;5094025;28;20397;-78
2021/05/15 02:52:30;;;;;;;5.00;3.35;;;9.80;87.50;;;;;;5092483;28;20396;-76
2021/05/15 02:54:56;;;;;;;4.00;3.10;;;9.90;86.60;;;;;;5093723;28;20374;-75
2021/05/15 02:57:21;;;;;;;4.43;3.20;;;10.00;86.10;;;;;;5093892;28;20378;-76
2021/05/15 02:59:47;;;;;;;6.80;3.50;;;9.90;86.70;;;;;;5093525;28;20378;-76
2021/05/15 03:02:12;;;;;;;5.03;3.23;;;9.80;87.10;;;;;;5093852;28;20374;-77
2021/05/15 03:04:38;;;;;;;4.90;3.13;;;9.80;87.20;;;;;;5093682;28;20559;-76
2021/05/15 03:07:03;;;;;;;4.35;3.30;;;9.80;87.10;;;;;;5093465;28;20385;-76
2021/05/15 03:09:29;;;;;;;5.18;3.42;;;9.80;86.90;;;;;;5093559;28;20402;-76
2021/05/15 03:11:54;;;;;;;4.43;3.43;;;9.70;87.10;;;;;;5093516;28;20806;-76
2021/05/15 03:14:20;;;;;;;5.80;4.50;;;9.60;88.10;;;;;;5093501;28;20415;-76
2021/05/15 03:16:46;;;;;;;5.40;3.30;;;9.70;88.20;;;;;;5093310;28;20842;-76
2021/05/15 03:19:11;;;;;;;5.00;3.60;;;9.80;87.40;;;;;;5093312;28;20374;-76
2021/05/15 03:21:37;;;;;;;5.40;3.65;;;10.00;86.30;;;;;;5093229;28;20377;-77
2021/05/15 03:24:03;;;;;;;8.77;4.10;;;9.90;86.70;;;;;;5093552;28;20727;-76
2021/05/15 03:26:29;;;;;;;6.70;4.00;;;9.90;87.00;;;;;;5092920;28;20371;-76
2021/05/15 03:28:54;;;;;;;5.68;4.28;;;9.90;86.90;;;;;;5075152;28;20696;-76
2021/05/15 03:31:20;;;;;;;6.85;3.90;;;9.80;87.10;;;;;;5093032;28;20379;-76
2021/05/15 03:33:45;;;;;;;6.23;3.70;;;9.90;87.00;;;;;;5093481;28;20506;-77
2021/05/15 03:36:11;;;;;;;6.17;4.20;;;9.90;86.50;;;;;;5091117;28;20921;-76
2021/05/15 03:38:36;;;;;;;5.95;4.30;;;9.80;87.10;;;;;;5093300;28;20382;-76
2021/05/15 03:41:02;;;;;;;6.47;4.10;;;9.70;87.80;;;;;;5090665;28;20378;-77
2021/05/15 03:43:28;;;;;;;6.93;3.80;;;9.70;87.60;;;;;;5093252;28;20854;-76
2021/05/15 03:45:53;;;;;;;7.10;3.70;;;9.80;87.10;;;;;;5093001;28;20592;-76
2021/05/15 03:48:20;;;;;;;5.87;3.90;;;9.80;87.10;;;;;;5093141;28;20366;-76
2021/05/15 03:50:53;;;;;;;6.82;3.90;;;9.70;87.40;;;;;;5092837;28;20394;-78
2021/05/15 03:53:20;;;;;;;5.15;3.78;;;9.70;87.40;;;;;;5093247;28;20389;-76
2021/05/15 03:55:46;;;;;;;8.32;4.18;;;9.80;87.20;;;;;;5093361;28;20381;-76
2021/05/15 03:58:13;;;;;;;4.93;3.92;;;9.80;87.00;;;;;;5092555;28;20562;-76
2021/05/15 04:00:39;;;;;;;5.07;3.58;;;9.90;87.00;;;;;;5093021;28;20378;-76
2021/05/15 04:03:04;;;;;;;5.13;4.22;;;9.80;87.10;;;;;;5092707;28;20389;-77
2021/05/15 04:05:30;;;;;;;4.45;3.55;;;9.80;86.90;;;;;;5093576;28;20374;-76
2021/05/15 04:07:56;;;;;;;6.07;3.65;;;9.70;87.00;;;;;;5092197;28;20838;-76
2021/05/15 04:10:22;;;;;;;6.40;3.47;;;9.80;87.00;;;;;;5092374;28;20405;-75
2021/05/15 04:12:52;;;;;;;5.40;3.60;;;9.70;87.30;;;;;;5092565;28;20386;-76
2021/05/15 04:15:34;;;;;;;5.30;3.43;;;9.70;87.40;;;;;;5072403;28;20396;-77
2021/05/15 04:18:12;;;;;;;4.35;3.15;;;9.70;87.20;;;;;;5089455;28;20466;-75
2021/05/15 04:20:39;;;;;;;5.00;3.25;;;9.70;87.10;;;;;;5091432;28;20428;-76
2021/05/15 04:23:05;;;;;;;6.85;3.40;;;9.80;87.00;;;;;;5091441;28;20423;-77
2021/05/15 04:25:31;;;;;;;4.97;3.20;;;9.80;87.00;;;;;;5091051;28;20370;-77
2021/05/15 04:27:57;;;;;;;5.53;3.03;;;9.80;87.00;;;;;;5092071;28;20734;-77
2021/05/15 04:30:24;;;;;;;4.75;3.25;;;9.90;86.90;;;;;;5089890;28;20740;-76
2021/05/15 04:32:50;;;;;;;5.05;3.22;;;9.90;86.30;;;;;;5090664;28;20435;-77
2021/05/15 04:35:15;;;;;;;5.65;3.08;;;9.90;86.50;;;;;;5092321;28;20469;-76
2021/05/15 04:37:41;;;;;;;3.75;2.78;;;9.80;86.80;;;;;;5091816;28;20378;-77
2021/05/15 04:40:08;;;;;;;4.43;3.13;;;9.90;86.80;;;;;;5088214;28;20397;-77
2021/05/15 04:42:36;;;;;;;4.40;3.10;;;9.80;86.90;;;;;;5091886;28;20548;-77
2021/05/15 04:45:03;;;;;;;4.63;3.00;;;9.80;87.10;;;;;;5091641;28;20386;-77
2021/05/15 04:47:28;;;;;;;4.32;3.20;;;9.90;87.00;;;;;;5073009;28;20433;-76
2021/05/15 04:49:54;;;;;;;5.17;3.20;;;9.80;87.60;;;;;;5092053;28;20406;-77
2021/05/15 04:52:19;;;;;;;7.47;3.70;;;9.80;88.80;;;;;;5073391;28;20759;-78
2021/05/15 04:54:45;;;;;;;6.90;3.75;;;9.60;90.20;;;;;;5083620;28;20408;-81
2021/05/15 04:57:10;;;;;;;7.57;3.70;;;9.50;91.40;;;;;;5089470;28;20394;-80
2021/05/15 04:59:36;;;;;;;9.33;3.80;;;9.50;92.20;;;;;;5091878;28;20377;-81
2021/05/15 05:02:01;;;;;;;6.57;3.60;;;9.30;93.00;;;;;;5091054;28;20386;-79
2021/05/15 05:04:27;;;;;;;6.35;3.83;;;9.40;93.10;;;;;;5091332;28;20530;-80
2021/05/15 05:06:53;;;;;;;7.30;4.13;;;9.40;92.70;;;;;;5090869;28;20773;-79
2021/05/15 05:09:18;;;;;;;6.17;3.70;;;9.50;92.70;;;;;;5091217;28;20393;-78
2021/05/15 05:11:45;;;;;;;6.10;3.50;;;9.70;92.10;;;;;;5090953;28;20727;-77
2021/05/15 05:14:11;;;;;;;6.60;3.60;;;9.60;92.50;;;;;;5091665;28;20373;-78
2021/05/15 05:16:36;;;;;;;4.63;3.80;;;9.50;93.20;;;;;;5072002;28;20390;-77
2021/05/15 05:19:02;;;;;;;5.10;3.00;;;9.60;93.10;;;;;;5072475;28;20473;-77
2021/05/15 05:21:28;;;;;;;5.43;3.30;;;9.70;92.60;;;;;;5091046;28;20381;-76
2021/05/15 05:23:53;;;;;;;4.73;3.70;;;9.40;93.40;;;;;;5072915;28;20894;-78
2021/05/15 05:26:19;;;;;;;5.77;3.80;;;9.60;93.00;;;;;;5091441;28;20407;-77
2021/05/15 05:28:50;;;;;;;6.63;3.72;;;9.60;92.90;;;;;;5090158;28;20377;-77
2021/05/15 05:31:16;;;;;;;6.10;4.07;;;9.70;92.70;;;;;;5090925;28;20742;-77
2021/05/15 05:33:41;;;;;;;6.38;3.30;;;9.70;92.20;;;;;;5090466;28;20393;-77
2021/05/15 05:36:07;;;;;;;6.72;3.90;;;9.80;92.80;;;;;;5089809;28;20393;-77
2021/05/15 05:38:33;;;;;;;6.13;3.60;;;9.90;92.80;;;;;;5090796;28;20517;-77
2021/05/15 05:40:59;;;;;;;7.13;4.32;;;9.80;93.00;;;;;;5090947;28;20421;-77
2021/05/15 05:43:24;;;;;;;5.65;4.00;;;9.70;93.70;;;;;;5090682;28;20405;-77
2021/05/15 05:45:50;;;;;;;5.70;4.00;;;9.70;93.80;;;;;;5091157;28;20404;-77
2021/05/15 05:48:18;;;;;;;4.90;3.77;;;9.60;93.40;;;;;;5090062;28;20413;-77
2021/05/15 05:50:44;;;;;;;8.60;4.80;;;9.90;93.50;;;;;;5072390;28;20412;-77
2021/05/15 05:53:10;;;;;;;7.47;4.78;;;9.80;94.10;;;;;;5090214;28;20378;-77
2021/05/15 05:55:35;;;;;;;7.67;4.70;;;10.00;94.30;;;;;;5090485;28;20374;-78
2021/05/15 05:58:03;;;;;;;6.75;4.07;;;10.00;93.80;;;;;;5083393;28;20370;-77
2021/05/15 06:00:29;;;;;;;10.05;5.18;;;10.10;93.60;;;;;;5072262;28;20378;-77
2021/05/15 06:02:55;;;;;;;6.73;4.50;;;10.30;93.20;;;;;;5089174;28;20377;-77
2021/05/15 06:05:20;;;;;;;7.23;4.57;;;10.40;93.10;;;;;;5090727;28;20386;-77
2021/05/15 06:07:46;;;;;;;8.77;5.13;;;10.30;93.60;;;;;;5081712;28;20393;-78
2021/05/15 06:10:12;;;;;;;6.75;4.63;;;10.30;93.90;;;;;;5088796;28;20436;-78
2021/05/15 06:12:37;;;;;;;7.85;5.53;;;10.30;93.80;;;;;;5090308;28;20555;-77
2021/05/15 06:15:04;;;;;;;6.10;4.47;;;10.30;93.70;;;;;;5089230;28;20386;-78
2021/05/15 06:17:30;;;;;;;8.30;5.28;;;10.40;93.50;;;;;;5089565;28;20397;-77
2021/05/15 06:19:55;;;;;;;8.30;5.30;;;10.40;93.40;;;;;;5090516;28;20845;-78
2021/05/15 06:22:21;;;;;;;8.10;5.60;;;10.30;93.80;;;;;;5089857;28;20369;-77
2021/05/15 06:24:46;;;;;;;13.23;6.07;;;10.40;93.80;;;;;;5090496;28;20722;-78
2021/05/15 06:27:12;;;;;;;9.75;6.55;;;10.40;94.50;;;;;;5089742;28;20747;-78
2021/05/15 06:29:37;;;;;;;8.87;6.03;;;10.40;93.40;;;;;;5090547;28;20409;-77
2021/05/15 06:32:03;;;;;;;13.17;8.40;;;10.30;93.70;;;;;;5089799;28;20857;-78
2021/05/15 06:34:29;;;;;;;15.53;8.50;;;10.10;93.00;;;;;;5089068;28;20459;-78
2021/05/15 06:36:55;;;;;;;14.40;9.27;;;10.30;93.10;;;;;;5089655;28;20397;-77
2021/05/15 06:39:20;;;;;;;17.13;10.10;;;10.10;93.60;;;;;;5090781;28;20378;-76
2021/05/15 06:41:46;;;;;;;20.40;12.38;;;10.10;94.00;;;;;;5089955;28;20381;-78
2021/05/15 06:44:12;;;;;;;26.08;14.20;;;10.20;93.60;;;;;;5089799;28;20783;-77
2021/05/15 06:46:37;;;;;;;24.45;14.02;;;10.10;93.60;;;;;;5089510;28;20857;-77
2021/05/15 06:49:03;;;;;;;26.30;14.48;;;10.20;94.10;;;;;;5088101;28;20769;-77
2021/05/15 06:51:30;;;;;;;22.50;14.00;;;10.10;93.70;;;;;;5088424;28;21069;-77
2021/05/15 06:53:55;;;;;;;22.73;13.63;;;10.30;93.50;;;;;;5088065;28;20385;-77
2021/05/15 06:56:21;;;;;;;23.10;12.50;;;10.30;92.80;;;;;;5088474;28;20850;-76
2021/05/15 06:58:47;;;;;;;22.60;13.07;;;10.30;93.20;;;;;;5087644;28;20416;-77
2021/05/15 07:01:12;;;;;;;21.87;13.73;;;10.30;93.00;;;;;;5088752;28;20378;-76
2021/05/15 07:03:38;;;;;;;21.20;13.05;;;10.40;93.30;;;;;;5087868;28;20397;-77
2021/05/15 07:06:06;;;;;;;19.67;11.95;;;10.40;93.20;;;;;;5090413;28;20481;-77
2021/05/15 07:08:32;;;;;;;21.60;11.57;;;10.40;92.70;;;;;;5071375;28;20378;-76
2021/05/15 07:10:58;;;;;;;16.92;11.13;;;10.40;92.70;;;;;;5091118;28;20402;-77
2021/05/15 07:13:24;;;;;;;18.57;11.33;;;10.30;92.70;;;;;;5093327;28;20451;-77
2021/05/15 07:15:49;;;;;;;15.65;10.82;;;10.30;92.70;;;;;;5093859;28;20430;-79
2021/05/15 07:18:15;;;;;;;22.17;11.20;;;10.40;92.60;;;;;;5093085;28;20385;-77
2021/05/15 07:20:41;;;;;;;16.70;10.40;;;10.40;93.30;;;;;;5075412;28;20512;-77
2021/05/15 07:23:07;;;;;;;19.25;11.02;;;10.40;92.50;;;;;;5075337;28;20384;-80
2021/05/15 07:25:34;;;;;;;17.98;10.32;;;10.40;93.00;;;;;;5093358;28;20378;-77
2021/05/15 07:28:00;;;;;;;18.63;11.35;;;10.40;93.20;;;;;;5093267;28;20394;-77
2021/05/15 07:30:26;;;;;;;17.70;11.05;;;10.60;93.00;;;;;;5074937;28;20398;-76
2021/05/15 07:32:53;;;;;;;17.65;10.65;;;10.50;92.90;;;;;;5075492;28;20388;-76
2021/05/15 07:35:18;;;;;;;18.40;10.10;;;10.60;92.70;;;;;;5092999;28;20366;-78
2021/05/15 07:37:44;;;;;;;15.80;9.50;;;10.40;92.70;;;;;;5092733;28;20779;-76
2021/05/15 07:40:10;;;;;;;13.33;9.23;;;10.30;92.20;;;;;;5074705;28;20949;-77
2021/05/15 07:42:35;;;;;;;10.43;7.88;;;10.30;92.00;;;;;;5075180;28;20828;-76
2021/05/15 07:45:01;;;;;;;12.67;7.73;;;10.30;92.50;;;;;;5092644;28;20374;-79
2021/05/15 07:47:29;;;;;;;11.50;8.50;;;10.30;92.80;;;;;;5074422;28;20424;-77
2021/05/15 07:49:56;;;;;;;11.07;7.90;;;10.40;93.10;;;;;;5093165;28;20406;-76
2021/05/15 07:52:21;;;;;;;14.33;8.53;;;10.30;92.80;;;;;;5092955;28;20832;-76
2021/05/15 07:54:47;;;;;;;13.13;9.13;;;10.30;93.40;;;;;;5093220;28;20470;-77
2021/05/15 07:57:13;;;;;;;13.30;9.30;;;10.40;93.40;;;;;;5074248;28;20866;-77
2021/05/15 07:59:39;;;;;;;11.88;9.15;;;10.30;93.70;;;;;;5092965;28;20382;-78
2021/05/15 08:02:05;;;;;;;12.93;8.82;;;10.20;93.80;;;;;;5092475;28;20440;-78
2021/05/15 08:04:30;;;;;;;13.10;8.90;;;10.20;93.30;;;;;;5092977;28;20410;-78
2021/05/15 08:06:56;;;;;;;11.80;9.07;;;10.10;93.30;;;;;;5092590;28;20753;-77
2021/05/15 08:09:21;;;;;;;11.18;8.73;;;10.20;93.40;;;;;;5092506;28;20424;-78
2021/05/15 08:11:47;;;;;;;11.15;8.55;;;10.30;93.90;;;;;;5074678;28;20393;-78
2021/05/15 08:14:12;;;;;;;11.43;8.83;;;10.30;93.50;;;;;;5092901;28;20366;-78
2021/05/15 08:16:38;;;;;;;10.50;7.93;;;10.20;93.70;;;;;;5092243;28;20734;-78
2021/05/15 08:19:03;;;;;;;14.07;9.02;;;10.10;93.70;;;;;;5092497;28;20374;-77
2021/05/15 08:21:31;;;;;;;12.40;8.43;;;10.30;94.00;;;;;;5092198;28;20469;-78
2021/05/15 08:23:56;;;;;;;12.25;9.00;;;10.40;93.80;;;;;;5092307;28;20374;-77
2021/05/15 08:26:22;;;;;;;11.80;8.80;;;10.60;93.60;;;;;;5074506;28;20586;-78
2021/05/15 08:28:51;;;;;;;10.30;7.70;;;10.70;93.50;;;;;;5091662;28;20924;-77
2021/05/15 08:31:17;;;;;;;15.98;8.70;;;10.50;92.90;;;;;;5092374;28;20404;-77
2021/05/15 08:33:43;;;;;;;10.67;7.60;;;10.40;93.60;;;;;;5074035;28;20390;-77
2021/05/15 08:36:10;;;;;;;12.57;7.90;;;10.40;93.40;;;;;;5092134;28;20909;-77
2021/05/15 08:38:37;;;;;;;12.90;8.82;;;10.20;93.40;;;;;;5091699;28;20858;-77
2021/05/15 08:41:03;;;;;;;10.95;8.30;;;10.30;92.90;;;;;;5073913;28;20480;-74
2021/05/15 08:43:32;;;;;;;12.67;8.67;;;10.40;93.60;;;;;;5091933;28;20370;-74
2021/05/15 08:46:00;;;;;;;15.95;10.45;;;10.50;93.00;;;;;;5090680;28;20723;-74
2021/05/15 08:48:37;;;;;;;15.85;9.73;;;10.70;93.10;;;;;;5072421;28;20412;-74
2021/05/15 08:51:04;;;;;;;12.93;9.03;;;10.90;92.70;;;;;;5091247;28;20504;-75
2021/05/15 08:53:31;;;;;;;15.77;10.43;;;11.00;92.00;;;;;;5092084;28;20878;-75
2021/05/15 08:55:56;;;;;;;13.23;9.02;;;11.40;93.20;;;;;;5091457;28;20371;-75
2021/05/15 08:58:22;;;;;;;17.40;10.70;;;11.10;90.10;;;;;;5091351;28;20494;-73
2021/05/15 09:00:49;;;;;;;14.13;10.13;;;11.40;92.70;;;;;;5091360;28;20386;-73
2021/05/15 09:03:17;;;;;;;11.85;9.38;;;11.50;90.00;;;;;;5091950;28;20389;-74
2021/05/15 09:05:50;;;;;;;17.80;11.18;;;11.50;91.10;;;;;;5091368;28;20382;-74
2021/05/15 09:08:17;;;;;;;14.18;10.57;;;11.60;92.60;;;;;;5090852;28;20378;-74
2021/05/15 09:10:46;;;;;;;14.43;10.17;;;11.70;91.60;;;;;;5090112;28;20394;-76
2021/05/15 09:13:19;;;;;;;13.37;9.60;;;11.70;91.00;;;;;;5072734;28;20814;-75
2021/05/15 09:15:46;;;;;;;13.93;10.10;;;11.60;89.90;;;;;;5091929;28;20725;-73
2021/05/15 09:18:18;;;;;;;13.00;8.63;;;11.80;90.80;;;;;;5090540;28;20480;-73
2021/05/15 09:20:45;;;;;;;10.75;7.93;;;11.70;88.40;;;;;;5073918;28;20722;-73
2021/05/15 09:23:16;;;;;;;13.20;7.88;;;11.60;87.80;;;;;;5090503;28;20374;-75
2021/05/15 09:25:43;;;;;;;10.10;8.18;;;11.60;87.30;;;;;;5091871;28;20386;-74
2021/05/15 09:28:09;;;;;;;14.02;8.27;;;11.60;87.60;;;;;;5090796;28;20382;-73
2021/05/15 09:30:35;;;;;;;11.00;8.00;;;11.80;88.70;;;;;;5091429;28;20409;-74
2021/05/15 09:33:15;;;;;;;10.07;6.97;;;11.60;87.60;;;;;;5090293;28;20435;-74
2021/05/15 09:35:41;;;;;;;11.15;7.65;;;11.60;87.10;;;;;;5090555;28;20381;-74
2021/05/15 09:38:07;;;;;;;10.48;7.43;;;12.20;87.80;;;;;;5072670;28;20378;-74
2021/05/15 09:40:33;;;;;;;8.43;6.50;;;12.60;85.90;;;;;;5089877;28;20516;-76
2021/05/15 09:43:00;;;;;;;9.93;6.50;;;12.20;84.60;;;;;;5072655;28;20394;-75
2021/05/15 09:45:31;;;;;;;7.70;6.28;;;12.40;84.70;;;;;;5072743;28;20435;-74
2021/05/15 09:48:06;;;;;;;9.60;6.50;;;12.40;85.50;;;;;;5072453;28;20730;-75
2021/05/15 09:50:34;;;;;;;9.27;6.10;;;12.80;84.60;;;;;;5072504;28;20777;-74
2021/05/15 09:53:16;;;;;;;7.75;5.95;;;13.40;82.10;;;;;;5091060;28;20374;-75
2021/05/15 09:55:44;;;;;;;9.48;6.10;;;13.90;80.00;;;;;;5072493;28;20889;-76
2021/05/15 09:58:10;;;;;;;7.45;5.60;;;14.40;78.20;;;;;;5090081;28;20374;-76
2021/05/15 10:00:44;;;;;;;9.67;5.43;;;13.60;78.00;;;;;;5091014;28;20440;-75
2021/05/15 10:03:27;;;;;;;8.30;5.93;;;13.30;81.30;;;;;;5090341;28;20846;-74
2021/05/15 10:06:07;;;;;;;7.63;5.95;;;13.00;77.10;;;;;;5090467;28;20894;-75
2021/05/15 10:08:35;;;;;;;8.73;6.28;;;12.90;79.30;;;;;;5090198;28;20370;-76
2021/05/15 10:11:03;;;;;;;9.17;6.37;;;12.80;80.70;;;;;;5072229;28;20533;-74
2021/05/15 10:13:30;;;;;;;8.68;6.70;;;12.50;80.90;;;;;;5090511;28;20386;-75
2021/05/15 10:15:56;;;;;;;9.25;6.85;;;12.40;79.80;;;;;;5090209;28;20421;-75
2021/05/15 10:18:21;;;;;;;9.40;6.80;;;12.40;82.20;;;;;;5089848;28;20448;-76
2021/05/15 10:20:48;;;;;;;8.35;6.38;;;12.50;80.60;;;;;;5090203;28;20378;-75
2021/05/15 10:23:20;;;;;;;10.80;6.63;;;13.10;79.10;;;;;;5090724;28;20417;-74
2021/05/15 10:25:47;;;;;;;8.43;6.10;;;13.90;82.70;;;;;;5090237;28;20375;-76
2021/05/15 10:28:24;;;;;;;6.60;4.90;;;14.40;76.30;;;;;;5071932;28;20409;-75
2021/05/15 10:31:00;;;;;;;6.28;5.03;;;13.90;73.00;;;;;;5090094;28;20421;-76
2021/05/15 10:33:30;;;;;;;5.32;4.57;;;13.90;74.00;;;;;;5072501;28;20431;-76
2021/05/15 10:35:56;;;;;;;4.72;4.18;;;13.80;73.70;;;;;;5090050;28;20394;-76
2021/05/15 10:38:33;;;;;;;5.93;4.32;;;14.10;76.20;;;;;;5089487;28;20858;-75
2021/05/15 10:41:14;;;;;;;5.37;3.50;;;14.60;72.50;;;;;;5072034;28;20422;-75
2021/05/15 10:43:42;;;;;;;5.28;4.28;;;14.80;69.80;;;;;;5090251;28;20419;-74
2021/05/15 10:46:27;;;;;;;6.65;4.28;;;14.60;74.40;;;;;;5093286;28;20381;-76
2021/05/15 10:48:59;;;;;;;6.75;3.65;;;14.70;71.40;;;;;;5093969;28;20362;-74
2021/05/15 10:51:39;;;;;;;4.88;4.13;;;14.90;71.00;;;;;;5094185;28;20467;-78
2021/05/15 10:54:06;;;;;;;4.55;3.55;;;14.60;66.90;;;;;;5075855;28;20870;-78
2021/05/15 10:56:31;;;;;;;5.07;3.80;;;14.40;69.80;;;;;;5093722;28;20378;-78
2021/05/15 10:59:02;;;;;;;5.27;3.70;;;14.30;70.30;;;;;;5075951;28;20772;-80
2021/05/15 11:01:30;;;;;;;9.23;3.40;;;14.90;71.80;;;;;;5093601;28;20380;-79
2021/05/15 11:03:58;;;;;;;5.75;3.03;;;15.30;66.50;;;;;;5093845;28;20374;-78
2021/05/15 11:06:25;;;;;;;2.92;2.47;;;14.70;67.50;;;;;;5092689;28;20917;-79
2021/05/15 11:08:57;;;;;;;5.65;2.90;;;14.60;69.80;;;;;;5075623;28;20406;-80
2021/05/15 11:11:38;;;;;;;2.58;1.98;;;14.10;65.70;;;;;;5093493;28;20496;-82
2021/05/15 11:14:23;;;;;;;5.55;2.22;;;13.90;66.90;;;;;;5093978;28;20409;-81
2021/05/15 11:17:27;;;;;;;3.20;2.00;;;14.10;70.90;;;;;;5093290;28;20406;-81
2021/05/15 11:19:57;;;;;;;3.92;2.00;;;14.00;66.70;;;;;;5088635;28;20461;-82
2021/05/15 11:22:49;;;;;;;4.57;2.25;;;13.70;66.10;;;;;;5093051;28;20378;-82
2021/05/15 11:25:14;;;;;;;3.30;2.20;;;13.70;68.50;;;;;;5093266;28;20379;-85
2021/05/15 11:27:49;;;;;;;3.17;2.10;;;13.40;69.40;;;;;;5092432;28;22348;-86
2021/05/15 11:30:28;;;;;;;1.65;1.35;;;13.20;69.80;;;;;;5093456;28;20413;-85
2021/05/15 11:33:01;;;;;;;3.90;1.20;;;12.30;75.80;;;;;;5093381;28;20416;-80
2021/05/15 11:35:27;;;;;;;17.75;1.40;;;10.60;84.30;;;;;;5093588;28;20449;-84
2021/05/15 11:38:03;;;;;;;3.47;1.17;;;10.50;87.50;;;;;;5092731;28;20374;-82
2021/05/15 11:40:29;;;;;;;18.55;1.90;;;10.40;87.10;;;;;;5074800;28;20404;-81
2021/05/15 11:42:56;;;;;;;34.90;2.83;;;10.00;89.90;;;;;;5092814;28;20453;-80
2021/05/15 11:45:27;;;;;;;8.87;2.10;;;9.90;91.00;;;;;;5093438;28;20393;-79
2021/05/15 11:48:06;;;;;;;4.77;2.10;;;9.90;90.60;;;;;;5092857;28;20410;-79
2021/05/15 11:50:31;;;;;;;3.92;2.10;;;9.80;91.30;;;;;;5108503;28;20768;-79
2021/05/15 11:53:02;;;;;;;6.30;2.80;;;9.80;91.00;;;;;;5093482;28;20386;-80
2021/05/15 11:55:28;;;;;;;11.65;2.88;;;9.80;92.80;;;;;;5074387;28;20382;-79
2021/05/15 11:58:01;;;;;;;7.25;2.95;;;10.30;92.70;;;;;;5092412;28;20469;-79
2021/05/15 12:00:29;;;;;;;8.05;3.40;;;10.00;92.30;;;;;;5092867;28;20370;-78
2021/05/15 12:02:55;;;;;;;7.28;3.60;;;10.00;93.30;;;;;;5093145;28;20850;-79
2021/05/15 12:05:21;;;;;;;7.97;2.97;;;10.30;92.90;;;;;;5074658;28;20390;-78
2021/05/15 12:07:51;;;;;;;6.15;2.72;;;10.10;92.30;;;;;;5092238;28;20406;-78
2021/05/15 12:10:22;;;;;;;4.82;2.53;;;10.40;91.30;;;;;;5092137;28;20443;-76
2021/05/15 12:12:56;;;;;;;17.87;2.77;;;10.60;91.60;;;;;;5092928;28;20859;-78
2021/05/15 12:15:22;;;;;;;3.50;2.10;;;10.80;90.10;;;;;;5092362;28;20867;-78
2021/05/15 12:17:48;;;;;;;2.50;1.80;;;11.30;89.20;;;;;;5091943;28;20834;-77
2021/05/15 12:20:47;;;;;;;1.90;1.40;;;11.80;91.90;;;;;;5092620;28;20375;-78
2021/05/15 12:23:17;;;;;;;1.80;1.40;;;11.90;90.50;;;;;;5055655;28;20405;-77
2021/05/15 12:25:55;;;;;;;5.75;1.83;;;12.00;87.00;;;;;;5089482;28;20392;-77
2021/05/15 12:28:32;;;;;;;3.95;1.88;;;12.20;90.10;;;;;;5091718;28;20943;-78
2021/05/15 12:30:59;;;;;;;3.88;1.92;;;12.10;89.90;;;;;;5091833;28;20440;-76
2021/05/15 12:33:27;;;;;;;3.50;2.28;;;12.10;88.30;;;;;;5091860;28;20418;-77
2021/05/15 12:36:07;;;;;;;4.15;2.25;;;11.70;87.90;;;;;;5091123;28;20757;-78
2021/05/15 12:38:51;;;;;;;5.50;2.40;;;12.10;89.50;;;;;;5089881;28;20869;-78
2021/05/15 12:41:21;;;;;;;4.68;2.53;;;11.80;88.30;;;;;;5091716;28;20378;-78
2021/05/15 12:43:47;;;;;;;5.05;2.80;;;12.20;90.00;;;;;;5073660;28;20440;-77
2021/05/15 12:46:23;;;;;;;5.82;2.70;;;12.60;89.40;;;;;;5073606;28;20843;-77
2021/05/15 12:49:06;;;;;;;4.38;2.80;;;12.60;86.70;;;;;;5073554;28;20382;-77